Mary Alice — WCX9570 — position and weather

sailwx.info

Track history (hours):
 
Tides and Currents Weather Stations Pressure Air Temp Water Temp Dewpoint Dewpoint Depression Visibility Wind Speed Wind Dir Waves Ship Positions

Mary Alice

Owner: Donjon Marine Co., Inc., HILLSIDE, NJ. More information available from US FCC via Universal Licensing System and Coast Guard Vessel Documentation Center.

Last reported at 2015-Aug-27 20:33 UTC. Time now 2015-Aug-27 20:46 UTC.
Position N 40°29' W 073°60'.

Length 21 m; draft 4.8 m.

Type: Towing. MMSI: 366744020.

Date/timePositionNaut miles runAvg speedWind from/ knotsBaromVisibWave heightAir tempDewpointWater temp
2015-Aug-27 20:33N 40°29' W 073°60'3 2.4
2015-Aug-27 19:19N 40°28' W 074°03'1 1.4
2015-Aug-27 18:30N 40°28' W 074°04'5 5.1
2015-Aug-27 17:33N 40°33' W 074°02'7 5.7
2015-Aug-27 16:21N 40°29' W 073°54'6 6.5
2015-Aug-27 15:24N 40°23' W 073°51'6 6.0
2015-Aug-27 14:29N 40°28' W 073°54'7 7.5
2015-Aug-27 13:32N 40°32' W 074°02'5 2.5
2015-Aug-27 11:33N 40°28' W 074°03'2 1.4
2015-Aug-27 10:25N 40°29' W 074°03'3 3.4
2015-Aug-27 09:29N 40°32' W 074°01'6 6.5
2015-Aug-27 08:32N 40°28' W 073°55'5 4.0
2015-Aug-27 07:20N 40°24' W 073°50'5 6.2
2015-Aug-27 06:28N 40°29' W 073°54'5 6.0
2015-Aug-27 05:33N 40°31' W 074°01'2 1.8
2015-Aug-27 04:33N 40°33' W 074°02'5 5.1
2015-Aug-27 03:33N 40°28' W 074°03'2 1.5
2015-Aug-27 02:32N 40°29' W 074°04'5 4.7
2015-Aug-27 01:33N 40°33' W 074°02'12 5.3
2015-Aug-26 23:16N 40°25' W 073°50'5 6.4
2015-Aug-26 22:31N 40°29' W 073°54'6 6.1
2015-Aug-26 21:33N 40°32' W 074°01'4 4.3
2015-Aug-26 20:33N 40°36' W 074°02'5 5.1
2015-Aug-26 19:32N 40°31' W 074°03'3 2.2
2015-Aug-26 18:11N 40°28' W 074°03'2 2.4
2015-Aug-26 17:29N 40°29' W 074°03'3 3.0
2015-Aug-26 16:30N 40°31' W 073°60'9 4.6
2015-Aug-26 14:29N 40°26' W 073°50'7 7.1
2015-Aug-26 13:33N 40°30' W 073°57'5 2.4
2015-Aug-26 11:24N 40°27' W 074°03'2 1.9
2015-Aug-26 10:33N 40°29' W 074°04'5 4.9
2015-Aug-26 09:33N 40°33' W 074°02'9 3.1
2015-Aug-26 06:31N 40°27' W 073°52'6 5.8
2015-Aug-26 05:30N 40°31' W 073°59'5 4.7
2015-Aug-26 04:31N 40°35' W 074°01'4 4.2
2015-Aug-26 03:31N 40°31' W 074°03'3 2.2
2015-Aug-26 02:12N 40°28' W 074°03'3 4.1
2015-Aug-26 01:33N 40°30' W 074°05'4 4.0
2015-Aug-26 00:29N 40°33' W 074°01'5 5.8
2015-Aug-25 23:33N 40°30' W 073°56'7 6.7
2015-Aug-25 22:29N 40°24' W 073°51'5 4.7
2015-Aug-25 21:30N 40°27' W 073°55'5 5.2
2015-Aug-25 20:33N 40°29' W 074°01'2 1.8
2015-Aug-25 19:24N 40°28' W 074°03'2 2.3
2015-Aug-25 18:33N 40°29' W 074°01'9 7.6
2015-Aug-25 17:18N 40°23' W 073°51'4 4.8
2015-Aug-25 16:29N 40°27' W 073°54'5 5.9
2015-Aug-25 15:33N 40°29' W 074°00'3 2.8
2015-Aug-25 14:33N 40°27' W 074°03'3 2.8
2015-Aug-25 13:33N 40°29' W 074°00'9 6.4
2015-Aug-25 12:05N 40°23' W 073°50'3 5.4
2015-Aug-25 11:33N 40°26' W 073°52'7 6.9
2015-Aug-25 10:33N 40°29' W 073°60'3 3.0
2015-Aug-25 09:33N 40°27' W 074°03'2 1.9
2015-Aug-25 08:33N 40°29' W 074°01'8 6.5
2015-Aug-25 07:23N 40°23' W 073°54'3 4.2
2015-Aug-25 06:33N 40°26' W 073°51'6 5.7
2015-Aug-25 05:33N 40°28' W 073°58'4 3.5
2015-Aug-25 04:33N 40°28' W 074°02'1 0.8
2015-Aug-25 03:33N 40°28' W 074°03'2 2.1
2015-Aug-25 02:33N 40°29' W 074°01'6 5.9
2015-Aug-25 01:33N 40°26' W 073°54'2 1.9
2015-Aug-25 00:33N 40°26' W 073°52'7 6.7
2015-Aug-24 23:33N 40°29' W 073°60'3 2.8
2015-Aug-24 22:33N 40°27' W 074°03'1 0.9
2015-Aug-24 21:33N 40°28' W 074°02'6 5.4
2015-Aug-24 20:24N 40°26' W 073°55'3 3.5
2015-Aug-24 19:33N 40°26' W 073°51'6 5.5
2015-Aug-24 18:31N 40°28' W 073°58'4 3.7
2015-Aug-24 17:33N 40°28' W 074°02'1 0.8
2015-Aug-24 16:31N 40°28' W 074°03'10 5.1
2015-Aug-24 14:32N 40°24' W 073°51'8 5.8
2015-Aug-24 13:11N 40°29' W 073°59'3 5.2
2015-Aug-24 12:33N 40°28' W 074°03'0 0.4
2015-Aug-24 11:32N 40°28' W 074°03'5 5.1
2015-Aug-24 10:33N 40°27' W 073°56'4 4.5
2015-Aug-24 09:33N 40°26' W 073°51'6 6.2
2015-Aug-24 08:33N 40°28' W 073°58'4 3.9
2015-Aug-24 07:33N 40°27' W 074°03'1 0.9
2015-Aug-24 06:33N 40°28' W 074°03'10 4.9
2015-Aug-24 04:26N 40°24' W 073°50'5 5.7
2015-Aug-24 03:31N 40°27' W 073°56'5 4.6
2015-Aug-24 02:33N 40°29' W 074°01'2 1.6
2015-Aug-24 01:33N 40°28' W 074°03'0 0.4
2015-Aug-24 00:33N 40°27' W 074°03'0 0.0
2015-Aug-23 23:33N 40°27' W 074°03'3 3.3
2015-Aug-23 22:31N 40°29' W 073°59'8 7.5
2015-Aug-23 21:25N 40°23' W 073°51'4 4.7
2015-Aug-23 20:33N 40°27' W 073°55'6 6.0
2015-Aug-23 19:32N 40°28' W 074°02'1 0.9
2015-Aug-23 18:33N 40°28' W 074°03'10 4.7
2015-Aug-23 16:28N 40°25' W 073°50'6 6.3
2015-Aug-23 15:33N 40°28' W 073°57'4 4.2
2015-Aug-23 14:33N 40°28' W 074°03'0 0.4
2015-Aug-23 13:33N 40°28' W 074°02'5 5.1
2015-Aug-23 12:30N 40°27' W 073°55'4 4.1
2015-Aug-23 11:33N 40°26' W 073°50'7 7.0
2015-Aug-23 10:33N 40°29' W 073°59'3 3.5
2015-Aug-23 09:33N 40°27' W 074°03'1 1.1
2015-Aug-23 08:33N 40°28' W 074°02'6 5.7
2015-Aug-23 07:25N 40°26' W 073°55'3 3.6
2015-Aug-23 06:33N 40°25' W 073°50'7 6.2
2015-Aug-23 05:30N 40°28' W 073°58'4 4.4
2015-Aug-23 04:32N 40°29' W 074°04'1 1.4
2015-Aug-23 03:30N 40°27' W 074°03'0 0.1
2015-Aug-23 02:33N 40°27' W 074°03'5 4.6
2015-Aug-23 01:31N 40°28' W 073°57'5 5.7
2015-Aug-23 00:33N 40°25' W 073°50'8 7.3
2015-Aug-22 23:32N 40°29' W 073°59'3 3.5
2015-Aug-22 22:33N 40°28' W 074°03'10 5.1
2015-Aug-22 20:31N 40°24' W 073°50'6 6.4
2015-Aug-22 19:33N 40°28' W 073°57'5 4.6
2015-Aug-22 18:33N 40°28' W 074°03'1 1.0
2015-Aug-22 17:33N 40°28' W 074°02'8 7.8
2015-Aug-22 16:29N 40°24' W 073°53'3 3.0
2015-Aug-22 15:33N 40°27' W 073°54'6 5.7
2015-Aug-22 14:33N 40°29' W 074°00'2 2.5
2015-Aug-22 13:33N 40°28' W 074°03'3 3.3
2015-Aug-22 12:33N 40°29' W 073°59'8 8.0
2015-Aug-22 11:31N 40°24' W 073°51'5 5.6
2015-Aug-22 10:33N 40°27' W 073°56'5 5.2
2015-Aug-22 09:33N 40°28' W 074°03'1 0.7
2015-Aug-22 08:33N 40°28' W 074°03'8 6.3
2015-Aug-22 07:16N 40°25' W 073°53'2 3.0
2015-Aug-22 06:33N 40°26' W 073°51'7 6.7
2015-Aug-22 05:33N 40°29' W 073°59'3 3.4
2015-Aug-22 04:33N 40°27' W 074°03'2 2.3
2015-Aug-22 03:33N 40°29' W 074°01'8 8.3
2015-Aug-22 02:33N 40°24' W 073°52'4 3.7
2015-Aug-22 01:33N 40°27' W 073°55'5 5.5
2015-Aug-22 00:33N 40°28' W 074°02'1 0.7
2015-Aug-21 23:33N 40°28' W 074°03'7 6.0
2015-Aug-21 22:26N 40°26' W 073°54'2 2.6
2015-Aug-21 21:33N 40°26' W 073°51'7 7.3
2015-Aug-21 20:33N 40°29' W 073°60'3 2.7
2015-Aug-21 19:31N 40°28' W 074°03'0 0.4
2015-Aug-21 18:31N 40°27' W 074°03'1 0.8
2015-Aug-21 17:25N 40°28' W 074°03'10 7.4
2015-Aug-21 16:03N 40°24' W 073°51'3 5.4
2015-Aug-21 15:32N 40°26' W 073°53'6 6.5
2015-Aug-21 14:33N 40°29' W 073°60'3 2.1
2015-Aug-21 13:14N 40°28' W 074°03'10 5.6
2015-Aug-21 11:27N 40°23' W 073°51'4 4.6
2015-Aug-21 10:31N 40°27' W 073°54'6 6.4
2015-Aug-21 09:33N 40°28' W 074°02'1 1.2
2015-Aug-21 08:32N 40°28' W 074°03'1 0.9
2015-Aug-21 07:28N 40°28' W 074°03'0 0.3
2015-Aug-21 06:33N 40°28' W 074°03'7 6.7
2015-Aug-21 05:33N 40°35' W 074°02'7 6.8
2015-Aug-21 04:33N 40°40' W 074°08'2 2.2
2015-Aug-21 03:33N 40°42' W 074°09'0 0.0
2015-Aug-21 02:33N 40°42' W 074°09'0 0.0
2015-Aug-21 01:33N 40°42' W 074°09'0 0.0
2015-Aug-21 00:33N 40°42' W 074°09'0 0.0
2015-Aug-20 23:33N 40°42' W 074°09'0 0.0
2015-Aug-20 22:33N 40°42' W 074°09'0 0.1
2015-Aug-20 21:33N 40°42' W 074°09'0 0.0
2015-Aug-20 20:33N 40°42' W 074°09'0 0.0
2015-Aug-20 19:33N 40°42' W 074°09'0 0.0
2015-Aug-20 18:33N 40°42' W 074°09'3 3.0
2015-Aug-20 17:33N 40°39' W 074°09'1 1.4
2015-Aug-20 16:33N 40°39' W 074°07'0 0.0
2015-Aug-20 15:33N 40°39' W 074°07'0 0.0
2015-Aug-20 14:33N 40°39' W 074°07'0 0.0
2015-Aug-20 13:33N 40°39' W 074°07'0 0.0
2015-Aug-20 12:33N 40°39' W 074°07'0 0.0
2015-Aug-20 11:33N 40°39' W 074°07'0 0.0
2015-Aug-20 10:33N 40°39' W 074°07'0 0.0
2015-Aug-20 09:33N 40°39' W 074°07'0 0.0
2015-Aug-20 08:33N 40°39' W 074°07'0 0.0
2015-Aug-20 07:33N 40°39' W 074°07'0 0.0
2015-Aug-20 06:33N 40°39' W 074°07'0 0.0
2015-Aug-20 05:33N 40°39' W 074°07'0 0.0
2015-Aug-20 04:33N 40°39' W 074°07'0 0.0
2015-Aug-20 03:33N 40°39' W 074°07'0 0.0
2015-Aug-20 02:33N 40°39' W 074°07'0 0.0
2015-Aug-20 01:33N 40°39' W 074°07'0 0.0
2015-Aug-20 00:33N 40°39' W 074°07'0 0.0
2015-Aug-19 23:33N 40°39' W 074°07'0 0.0
2015-Aug-19 22:33N 40°39' W 074°07'0 0.0
2015-Aug-19 21:33N 40°39' W 074°07'0 0.0
2015-Aug-19 20:33N 40°39' W 074°07'0 0.0
2015-Aug-19 19:33N 40°39' W 074°07'0 0.0
2015-Aug-19 18:33N 40°39' W 074°07'0 0.0
2015-Aug-19 17:33N 40°39' W 074°07'0 0.0
2015-Aug-19 16:33N 40°39' W 074°07'0 0.0
2015-Aug-19 15:33N 40°39' W 074°07'0 0.0
2015-Aug-19 14:33N 40°39' W 074°07'0 0.0
2015-Aug-19 13:33N 40°39' W 074°07'0 0.0
2015-Aug-19 12:33N 40°39' W 074°07'1 1.4
2015-Aug-19 11:33N 40°39' W 074°09'3 3.1
2015-Aug-19 10:33N 40°42' W 074°09'0 0.0
2015-Aug-19 09:33N 40°42' W 074°09'0 0.0
2015-Aug-19 08:33N 40°42' W 074°09'0 0.0
2015-Aug-19 07:33N 40°42' W 074°09'0 0.0
2015-Aug-19 06:33N 40°42' W 074°09'0 0.0
2015-Aug-19 05:33N 40°42' W 074°09'0 0.0
2015-Aug-19 04:33N 40°42' W 074°09'0 0.0
2015-Aug-19 03:33N 40°42' W 074°09'0 0.0
2015-Aug-19 02:33N 40°42' W 074°09'0 0.0
2015-Aug-19 01:33N 40°42' W 074°09'3 3.3
2015-Aug-19 00:33N 40°39' W 074°09'7 7.3
2015-Aug-18 23:33N 40°34' W 074°02'7 6.5
2015-Aug-18 22:33N 40°27' W 074°03'0 0.0
2015-Aug-18 21:33N 40°27' W 074°03'0 0.3
2015-Aug-18 20:33N 40°27' W 074°03'1 0.8
2015-Aug-18 19:33N 40°28' W 074°03'1 0.7
2015-Aug-18 18:33N 40°28' W 074°03'1 1.3
2015-Aug-18 17:33N 40°28' W 074°02'10 4.8
2015-Aug-18 15:33N 40°24' W 073°50'7 5.4
2015-Aug-18 14:19N 40°28' W 073°58'4 4.8
2015-Aug-18 13:33N 40°28' W 074°02'0 0.5
2015-Aug-18 12:33N 40°28' W 074°03'6 5.7
2015-Aug-18 11:33N 40°26' W 073°56'5 4.8
2015-Aug-18 10:32N 40°24' W 073°50'5 5.6
2015-Aug-18 09:33N 40°27' W 073°56'5 5.0
2015-Aug-18 08:33N 40°28' W 074°02'1 0.5
2015-Aug-18 07:33N 40°28' W 074°03'4 4.4
2015-Aug-18 06:33N 40°28' W 073°57'7 6.7
2015-Aug-18 05:33N 40°23' W 073°50'6 5.6
2015-Aug-18 04:33N 40°27' W 073°56'3 6.8
2015-Aug-18 04:07N 40°29' W 073°59'3 4.3
2015-Aug-18 03:29N 40°28' W 074°02'1 0.9
2015-Aug-18 02:31N 40°28' W 074°03'10 4.6
2015-Aug-18 00:18N 40°24' W 073°50'4 5.2
2015-Aug-17 23:30N 40°27' W 073°55'5 4.9
2015-Aug-17 22:33N 40°29' W 074°00'3 2.5
2015-Aug-17 21:32N 40°28' W 074°03'  
Track history (hours):
 
Tides and Currents Weather Stations Pressure Air Temp Water Temp Dewpoint Dewpoint Depression Visibility Wind Speed Wind Dir Waves Ship Positions

Mary Alice

Owner: Donjon Marine Co., Inc., HILLSIDE, NJ. More information available from US FCC via Universal Licensing System and Coast Guard Vessel Documentation Center.

Last reported at 2015-Aug-27 20:33 UTC. Time now 2015-Aug-27 20:46 UTC.
Position N 40°29' W 073°60'.

Length 21 m; draft 4.8 m.

Type: Towing. MMSI: 366744020.

Date/timePositionNaut miles runAvg speedWind from/ knotsBaromVisibWave heightAir tempDewpointWater temp
2015-Aug-27 20:33N 40°29' W 073°60'3 2.4
2015-Aug-27 19:19N 40°28' W 074°03'1 1.4
2015-Aug-27 18:30N 40°28' W 074°04'5 5.1
2015-Aug-27 17:33N 40°33' W 074°02'7 5.7
2015-Aug-27 16:21N 40°29' W 073°54'6 6.5
2015-Aug-27 15:24N 40°23' W 073°51'6 6.0
2015-Aug-27 14:29N 40°28' W 073°54'7 7.5
2015-Aug-27 13:32N 40°32' W 074°02'5 2.5
2015-Aug-27 11:33N 40°28' W 074°03'2 1.4
2015-Aug-27 10:25N 40°29' W 074°03'3 3.4
2015-Aug-27 09:29N 40°32' W 074°01'6 6.5
2015-Aug-27 08:32N 40°28' W 073°55'5 4.0
2015-Aug-27 07:20N 40°24' W 073°50'5 6.2
2015-Aug-27 06:28N 40°29' W 073°54'5 6.0
2015-Aug-27 05:33N 40°31' W 074°01'2 1.8
2015-Aug-27 04:33N 40°33' W 074°02'5 5.1
2015-Aug-27 03:33N 40°28' W 074°03'2 1.5
2015-Aug-27 02:32N 40°29' W 074°04'5 4.7
2015-Aug-27 01:33N 40°33' W 074°02'12 5.3
2015-Aug-26 23:16N 40°25' W 073°50'5 6.4
2015-Aug-26 22:31N 40°29' W 073°54'6 6.1
2015-Aug-26 21:33N 40°32' W 074°01'4 4.3
2015-Aug-26 20:33N 40°36' W 074°02'5 5.1
2015-Aug-26 19:32N 40°31' W 074°03'3 2.2
2015-Aug-26 18:11N 40°28' W 074°03'2 2.4
2015-Aug-26 17:29N 40°29' W 074°03'3 3.0
2015-Aug-26 16:30N 40°31' W 073°60'9 4.6
2015-Aug-26 14:29N 40°26' W 073°50'7 7.1
2015-Aug-26 13:33N 40°30' W 073°57'5 2.4
2015-Aug-26 11:24N 40°27' W 074°03'2 1.9
2015-Aug-26 10:33N 40°29' W 074°04'5 4.9
2015-Aug-26 09:33N 40°33' W 074°02'9 3.1
2015-Aug-26 06:31N 40°27' W 073°52'6 5.8
2015-Aug-26 05:30N 40°31' W 073°59'5 4.7
2015-Aug-26 04:31N 40°35' W 074°01'4 4.2
2015-Aug-26 03:31N 40°31' W 074°03'3 2.2
2015-Aug-26 02:12N 40°28' W 074°03'3 4.1
2015-Aug-26 01:33N 40°30' W 074°05'4 4.0
2015-Aug-26 00:29N 40°33' W 074°01'5 5.8
2015-Aug-25 23:33N 40°30' W 073°56'7 6.7
2015-Aug-25 22:29N 40°24' W 073°51'5 4.7
2015-Aug-25 21:30N 40°27' W 073°55'5 5.2
2015-Aug-25 20:33N 40°29' W 074°01'2 1.8
2015-Aug-25 19:24N 40°28' W 074°03'2 2.3
2015-Aug-25 18:33N 40°29' W 074°01'9 7.6
2015-Aug-25 17:18N 40°23' W 073°51'4 4.8
2015-Aug-25 16:29N 40°27' W 073°54'5 5.9
2015-Aug-25 15:33N 40°29' W 074°00'3 2.8
2015-Aug-25 14:33N 40°27' W 074°03'3 2.8
2015-Aug-25 13:33N 40°29' W 074°00'9 6.4
2015-Aug-25 12:05N 40°23' W 073°50'3 5.4
2015-Aug-25 11:33N 40°26' W 073°52'7 6.9
2015-Aug-25 10:33N 40°29' W 073°60'3 3.0
2015-Aug-25 09:33N 40°27' W 074°03'2 1.9
2015-Aug-25 08:33N 40°29' W 074°01'8 6.5
2015-Aug-25 07:23N 40°23' W 073°54'3 4.2
2015-Aug-25 06:33N 40°26' W 073°51'6 5.7
2015-Aug-25 05:33N 40°28' W 073°58'4 3.5
2015-Aug-25 04:33N 40°28' W 074°02'1 0.8
2015-Aug-25 03:33N 40°28' W 074°03'2 2.1
2015-Aug-25 02:33N 40°29' W 074°01'6 5.9
2015-Aug-25 01:33N 40°26' W 073°54'2 1.9
2015-Aug-25 00:33N 40°26' W 073°52'7 6.7
2015-Aug-24 23:33N 40°29' W 073°60'3 2.8
2015-Aug-24 22:33N 40°27' W 074°03'1 0.9
2015-Aug-24 21:33N 40°28' W 074°02'6 5.4
2015-Aug-24 20:24N 40°26' W 073°55'3 3.5
2015-Aug-24 19:33N 40°26' W 073°51'6 5.5
2015-Aug-24 18:31N 40°28' W 073°58'4 3.7
2015-Aug-24 17:33N 40°28' W 074°02'1 0.8
2015-Aug-24 16:31N 40°28' W 074°03'10 5.1
2015-Aug-24 14:32N 40°24' W 073°51'8 5.8
2015-Aug-24 13:11N 40°29' W 073°59'3 5.2
2015-Aug-24 12:33N 40°28' W 074°03'0 0.4
2015-Aug-24 11:32N 40°28' W 074°03'5 5.1
2015-Aug-24 10:33N 40°27' W 073°56'4 4.5
2015-Aug-24 09:33N 40°26' W 073°51'6 6.2
2015-Aug-24 08:33N 40°28' W 073°58'4 3.9
2015-Aug-24 07:33N 40°27' W 074°03'1 0.9
2015-Aug-24 06:33N 40°28' W 074°03'10 4.9
2015-Aug-24 04:26N 40°24' W 073°50'5 5.7
2015-Aug-24 03:31N 40°27' W 073°56'5 4.6
2015-Aug-24 02:33N 40°29' W 074°01'2 1.6
2015-Aug-24 01:33N 40°28' W 074°03'0 0.4
2015-Aug-24 00:33N 40°27' W 074°03'0 0.0
2015-Aug-23 23:33N 40°27' W 074°03'3 3.3
2015-Aug-23 22:31N 40°29' W 073°59'8 7.5
2015-Aug-23 21:25N 40°23' W 073°51'4 4.7
2015-Aug-23 20:33N 40°27' W 073°55'6 6.0
2015-Aug-23 19:32N 40°28' W 074°02'1 0.9
2015-Aug-23 18:33N 40°28' W 074°03'10 4.7
2015-Aug-23 16:28N 40°25' W 073°50'6 6.3
2015-Aug-23 15:33N 40°28' W 073°57'4 4.2
2015-Aug-23 14:33N 40°28' W 074°03'0 0.4
2015-Aug-23 13:33N 40°28' W 074°02'5 5.1
2015-Aug-23 12:30N 40°27' W 073°55'4 4.1
2015-Aug-23 11:33N 40°26' W 073°50'7 7.0
2015-Aug-23 10:33N 40°29' W 073°59'3 3.5
2015-Aug-23 09:33N 40°27' W 074°03'1 1.1
2015-Aug-23 08:33N 40°28' W 074°02'6 5.7
2015-Aug-23 07:25N 40°26' W 073°55'3 3.6
2015-Aug-23 06:33N 40°25' W 073°50'7 6.2
2015-Aug-23 05:30N 40°28' W 073°58'4 4.4
2015-Aug-23 04:32N 40°29' W 074°04'1 1.4
2015-Aug-23 03:30N 40°27' W 074°03'0 0.1
2015-Aug-23 02:33N 40°27' W 074°03'5 4.6
2015-Aug-23 01:31N 40°28' W 073°57'5 5.7
2015-Aug-23 00:33N 40°25' W 073°50'8 7.3
2015-Aug-22 23:32N 40°29' W 073°59'3 3.5
2015-Aug-22 22:33N 40°28' W 074°03'10 5.1
2015-Aug-22 20:31N 40°24' W 073°50'6 6.4
2015-Aug-22 19:33N 40°28' W 073°57'5 4.6
2015-Aug-22 18:33N 40°28' W 074°03'1 1.0
2015-Aug-22 17:33N 40°28' W 074°02'8 7.8
2015-Aug-22 16:29N 40°24' W 073°53'3 3.0
2015-Aug-22 15:33N 40°27' W 073°54'6 5.7
2015-Aug-22 14:33N 40°29' W 074°00'2 2.5
2015-Aug-22 13:33N 40°28' W 074°03'3 3.3
2015-Aug-22 12:33N 40°29' W 073°59'8 8.0
2015-Aug-22 11:31N 40°24' W 073°51'5 5.6
2015-Aug-22 10:33N 40°27' W 073°56'5 5.2
2015-Aug-22 09:33N 40°28' W 074°03'1 0.7
2015-Aug-22 08:33N 40°28' W 074°03'8 6.3
2015-Aug-22 07:16N 40°25' W 073°53'2 3.0
2015-Aug-22 06:33N 40°26' W 073°51'7 6.7
2015-Aug-22 05:33N 40°29' W 073°59'3 3.4
2015-Aug-22 04:33N 40°27' W 074°03'2 2.3
2015-Aug-22 03:33N 40°29' W 074°01'8 8.3
2015-Aug-22 02:33N 40°24' W 073°52'4 3.7
2015-Aug-22 01:33N 40°27' W 073°55'5 5.5
2015-Aug-22 00:33N 40°28' W 074°02'1 0.7
2015-Aug-21 23:33N 40°28' W 074°03'7 6.0
2015-Aug-21 22:26N 40°26' W 073°54'2 2.6
2015-Aug-21 21:33N 40°26' W 073°51'7 7.3
2015-Aug-21 20:33N 40°29' W 073°60'3 2.7
2015-Aug-21 19:31N 40°28' W 074°03'0 0.4
2015-Aug-21 18:31N 40°27' W 074°03'1 0.8
2015-Aug-21 17:25N 40°28' W 074°03'10 7.4
2015-Aug-21 16:03N 40°24' W 073°51'3 5.4
2015-Aug-21 15:32N 40°26' W 073°53'6 6.5
2015-Aug-21 14:33N 40°29' W 073°60'3 2.1
2015-Aug-21 13:14N 40°28' W 074°03'10 5.6
2015-Aug-21 11:27N 40°23' W 073°51'4 4.6
2015-Aug-21 10:31N 40°27' W 073°54'6 6.4
2015-Aug-21 09:33N 40°28' W 074°02'1 1.2
2015-Aug-21 08:32N 40°28' W 074°03'1 0.9
2015-Aug-21 07:28N 40°28' W 074°03'0 0.3
2015-Aug-21 06:33N 40°28' W 074°03'7 6.7
2015-Aug-21 05:33N 40°35' W 074°02'7 6.8
2015-Aug-21 04:33N 40°40' W 074°08'2 2.2
2015-Aug-21 03:33N 40°42' W 074°09'0 0.0
2015-Aug-21 02:33N 40°42' W 074°09'0 0.0
2015-Aug-21 01:33N 40°42' W 074°09'0 0.0
2015-Aug-21 00:33N 40°42' W 074°09'0 0.0
2015-Aug-20 23:33N 40°42' W 074°09'0 0.0
2015-Aug-20 22:33N 40°42' W 074°09'0 0.1
2015-Aug-20 21:33N 40°42' W 074°09'0 0.0
2015-Aug-20 20:33N 40°42' W 074°09'0 0.0
2015-Aug-20 19:33N 40°42' W 074°09'0 0.0
2015-Aug-20 18:33N 40°42' W 074°09'3 3.0
2015-Aug-20 17:33N 40°39' W 074°09'1 1.4
2015-Aug-20 16:33N 40°39' W 074°07'0 0.0
2015-Aug-20 15:33N 40°39' W 074°07'0 0.0
2015-Aug-20 14:33N 40°39' W 074°07'0 0.0
2015-Aug-20 13:33N 40°39' W 074°07'0 0.0
2015-Aug-20 12:33N 40°39' W 074°07'0 0.0
2015-Aug-20 11:33N 40°39' W 074°07'0 0.0
2015-Aug-20 10:33N 40°39' W 074°07'0 0.0
2015-Aug-20 09:33N 40°39' W 074°07'0 0.0
2015-Aug-20 08:33N 40°39' W 074°07'0 0.0
2015-Aug-20 07:33N 40°39' W 074°07'0 0.0
2015-Aug-20 06:33N 40°39' W 074°07'0 0.0
2015-Aug-20 05:33N 40°39' W 074°07'0 0.0
2015-Aug-20 04:33N 40°39' W 074°07'0 0.0
2015-Aug-20 03:33N 40°39' W 074°07'0 0.0
2015-Aug-20 02:33N 40°39' W 074°07'0 0.0
2015-Aug-20 01:33N 40°39' W 074°07'0 0.0
2015-Aug-20 00:33N 40°39' W 074°07'0 0.0
2015-Aug-19 23:33N 40°39' W 074°07'0 0.0
2015-Aug-19 22:33N 40°39' W 074°07'0 0.0
2015-Aug-19 21:33N 40°39' W 074°07'0 0.0
2015-Aug-19 20:33N 40°39' W 074°07'0 0.0
2015-Aug-19 19:33N 40°39' W 074°07'0 0.0
2015-Aug-19 18:33N 40°39' W 074°07'0 0.0
2015-Aug-19 17:33N 40°39' W 074°07'0 0.0
2015-Aug-19 16:33N 40°39' W 074°07'0 0.0
2015-Aug-19 15:33N 40°39' W 074°07'0 0.0
2015-Aug-19 14:33N 40°39' W 074°07'0 0.0
2015-Aug-19 13:33N 40°39' W 074°07'0 0.0
2015-Aug-19 12:33N 40°39' W 074°07'1 1.4
2015-Aug-19 11:33N 40°39' W 074°09'3 3.1
2015-Aug-19 10:33N 40°42' W 074°09'0 0.0
2015-Aug-19 09:33N 40°42' W 074°09'0 0.0
2015-Aug-19 08:33N 40°42' W 074°09'0 0.0
2015-Aug-19 07:33N 40°42' W 074°09'0 0.0
2015-Aug-19 06:33N 40°42' W 074°09'0 0.0
2015-Aug-19 05:33N 40°42' W 074°09'0 0.0
2015-Aug-19 04:33N 40°42' W 074°09'0 0.0
2015-Aug-19 03:33N 40°42' W 074°09'0 0.0
2015-Aug-19 02:33N 40°42' W 074°09'0 0.0
2015-Aug-19 01:33N 40°42' W 074°09'3 3.3
2015-Aug-19 00:33N 40°39' W 074°09'7 7.3
2015-Aug-18 23:33N 40°34' W 074°02'7 6.5
2015-Aug-18 22:33N 40°27' W 074°03'0 0.0
2015-Aug-18 21:33N 40°27' W 074°03'0 0.3
2015-Aug-18 20:33N 40°27' W 074°03'1 0.8
2015-Aug-18 19:33N 40°28' W 074°03'1 0.7
2015-Aug-18 18:33N 40°28' W 074°03'1 1.3
2015-Aug-18 17:33N 40°28' W 074°02'10 4.8
2015-Aug-18 15:33N 40°24' W 073°50'7 5.4
2015-Aug-18 14:19N 40°28' W 073°58'4 4.8
2015-Aug-18 13:33N 40°28' W 074°02'0 0.5
2015-Aug-18 12:33N 40°28' W 074°03'6 5.7
2015-Aug-18 11:33N 40°26' W 073°56'5 4.8
2015-Aug-18 10:32N 40°24' W 073°50'5 5.6
2015-Aug-18 09:33N 40°27' W 073°56'5 5.0
2015-Aug-18 08:33N 40°28' W 074°02'1 0.5
2015-Aug-18 07:33N 40°28' W 074°03'4 4.4
2015-Aug-18 06:33N 40°28' W 073°57'7 6.7
2015-Aug-18 05:33N 40°23' W 073°50'6 5.6
2015-Aug-18 04:33N 40°27' W 073°56'3 6.8
2015-Aug-18 04:07N 40°29' W 073°59'3 4.3
2015-Aug-18 03:29N 40°28' W 074°02'1 0.9
2015-Aug-18 02:31N 40°28' W 074°03'10 4.6
2015-Aug-18 00:18N 40°24' W 073°50'4 5.2
2015-Aug-17 23:30N 40°27' W 073°55'5 4.9
2015-Aug-17 22:33N 40°29' W 074°00'3 2.5
2015-Aug-17 21:32N 40°28' W 074°03'  

Dump ship's entire track history